sensor_id;sensor_type;location;lat;lon;timestamp;pressure;altitude;pressure_sealevel;temperature;humidity
9423;BME280;65863;49.506;10.400;2023-02-13T00:02:25;100060.66;;;0.67;98.81
9423;BME280;65863;49.506;10.400;2023-02-13T00:05:09;100079.00;;;0.61;99.04
9423;BME280;65863;49.506;10.400;2023-02-13T00:07:53;100051.63;;;0.50;99.03
9423;BME280;65863;49.506;10.400;2023-02-13T00:10:37;100081.34;;;0.63;99.05
9423;BME280;65863;49.506;10.400;2023-02-13T00:13:21;100040.69;;;0.14;98.67
9423;BME280;65863;49.506;10.400;2023-02-13T00:16:06;100062.78;;;0.14;98.64
9423;BME280;65863;49.506;10.400;2023-02-13T00:18:50;100054.69;;;0.07;98.85
9423;BME280;65863;49.506;10.400;2023-02-13T00:21:34;100049.34;;;-0.17;98.45
9423;BME280;65863;49.506;10.400;2023-02-13T00:24:18;100076.69;;;-0.06;98.61
9423;BME280;65863;49.506;10.400;2023-02-13T00:27:02;100055.25;;;-0.35;98.31
9423;BME280;65863;49.506;10.400;2023-02-13T00:29:46;100051.53;;;-0.45;98.40
9423;BME280;65863;49.506;10.400;2023-02-13T00:32:30;100050.59;;;-0.38;98.52
9423;BME280;65863;49.506;10.400;2023-02-13T00:35:15;100059.66;;;-0.38;98.49
9423;BME280;65863;49.506;10.400;2023-02-13T00:37:58;100083.47;;;-0.27;98.34
9423;BME280;65863;49.506;10.400;2023-02-13T00:40:43;100036.69;;;-0.71;98.06
9423;BME280;65863;49.506;10.400;2023-02-13T00:43:27;100051.06;;;-0.80;97.98
9423;BME280;65863;49.506;10.400;2023-02-13T00:46:11;100080.50;;;-0.73;98.16
9423;BME280;65863;49.506;10.400;2023-02-13T00:48:56;100076.47;;;-0.68;98.14
9423;BME280;65863;49.506;10.400;2023-02-13T00:51:40;100015.31;;;-1.04;98.21
9423;BME280;65863;49.506;10.400;2023-02-13T00:54:24;100065.09;;;-0.91;98.22
9423;BME280;65863;49.506;10.400;2023-02-13T00:57:08;100075.28;;;-0.88;98.09
9423;BME280;65863;49.506;10.400;2023-02-13T00:59:52;100051.50;;;-1.22;98.27
9423;BME280;65863;49.506;10.400;2023-02-13T01:02:36;100034.25;;;-1.46;98.27
9423;BME280;65863;49.506;10.400;2023-02-13T01:05:20;100047.09;;;-1.39;98.06
9423;BME280;65863;49.506;10.400;2023-02-13T01:08:05;100049.63;;;-1.48;98.08
9423;BME280;65863;49.506;10.400;2023-02-13T01:10:50;100065.97;;;-1.37;98.33
9423;BME280;65863;49.506;10.400;2023-02-13T01:13:35;100077.44;;;-1.19;98.09
9423;BME280;65863;49.506;10.400;2023-02-13T01:16:19;100056.63;;;-1.44;98.18
9423;BME280;65863;49.506;10.400;2023-02-13T01:19:04;100080.13;;;-1.15;98.36
9423;BME280;65863;49.506;10.400;2023-02-13T01:21:48;100046.91;;;-1.28;98.23
9423;BME280;65863;49.506;10.400;2023-02-13T01:24:32;100054.13;;;-1.34;98.41
9423;BME280;65863;49.506;10.400;2023-02-13T01:27:17;100051.41;;;-1.18;98.53
9423;BME280;65863;49.506;10.400;2023-02-13T01:30:01;100028.88;;;-1.33;98.63
9423;BME280;65863;49.506;10.400;2023-02-13T01:32:46;100055.81;;;-1.21;98.36
9423;BME280;65863;49.506;10.400;2023-02-13T01:35:31;100026.88;;;-1.52;98.22
9423;BME280;65863;49.506;10.400;2023-02-13T01:38:15;100047.09;;;-1.39;98.56
9423;BME280;65863;49.506;10.400;2023-02-13T01:40:59;100056.69;;;-1.47;98.43
9423;BME280;65863;49.506;10.400;2023-02-13T01:43:53;100060.56;;;-1.45;98.08
9423;BME280;65863;49.506;10.400;2023-02-13T01:46:40;100048.63;;;-1.58;98.63
9423;BME280;65863;49.506;10.400;2023-02-13T01:49:25;100054.97;;;-1.61;98.18
9423;BME280;65863;49.506;10.400;2023-02-13T01:52:10;100033.31;;;-1.83;98.22
9423;BME280;65863;49.506;10.400;2023-02-13T01:54:55;100031.25;;;-1.79;98.09
9423;BME280;65863;49.506;10.400;2023-02-13T01:57:42;100033.78;;;-1.64;98.41
9423;BME280;65863;49.506;10.400;2023-02-13T02:00:28;100012.34;;;-1.77;98.32
9423;BME280;65863;49.506;10.400;2023-02-13T02:03:18;100029.38;;;-1.62;98.38
9423;BME280;65863;49.506;10.400;2023-02-13T02:06:07;100049.75;;;-1.56;98.61
9423;BME280;65863;49.506;10.400;2023-02-13T02:08:56;100008.88;;;-1.81;98.42
9423;BME280;65863;49.506;10.400;2023-02-13T02:12:00;100048.28;;;-1.60;98.26
9423;BME280;65863;49.506;10.400;2023-02-13T02:14:45;100027.25;;;-1.98;98.58
9423;BME280;65863;49.506;10.400;2023-02-13T02:17:30;100027.25;;;-1.98;98.25
9423;BME280;65863;49.506;10.400;2023-02-13T02:26:38;100057.50;;;-1.94;98.18
9423;BME280;65863;49.506;10.400;2023-02-13T02:29:56;100060.44;;;-1.81;98.60
9423;BME280;65863;49.506;10.400;2023-02-13T02:41:38;100034.84;;;-2.05;98.18
9423;BME280;65863;49.506;10.400;2023-02-13T02:45:04;100055.91;;;-1.95;98.42
9423;BME280;65863;49.506;10.400;2023-02-13T02:48:02;100029.94;;;-2.18;98.43
9423;BME280;65863;49.506;10.400;2023-02-13T02:51:11;100061.22;;;-2.08;98.61
9423;BME280;65863;49.506;10.400;2023-02-13T02:57:23;100064.00;;;-2.08;98.44
9423;BME280;65863;49.506;10.400;2023-02-13T03:00:15;100041.78;;;-2.21;98.40
9423;BME280;65863;49.506;10.400;2023-02-13T03:03:22;100027.75;;;-2.30;98.63
9423;BME280;65863;49.506;10.400;2023-02-13T03:09:22;100023.00;;;-2.57;98.31
9423;BME280;65863;49.506;10.400;2023-02-13T03:12:38;100048.03;;;-2.48;98.39
9423;BME280;65863;49.506;10.400;2023-02-13T03:15:44;100065.63;;;-2.42;98.54
9423;BME280;65863;49.506;10.400;2023-02-13T03:18:55;100055.09;;;-2.47;98.39
9423;BME280;65863;49.506;10.400;2023-02-13T03:25:16;100049.84;;;-2.65;98.44
9423;BME280;65863;49.506;10.400;2023-02-13T03:34:34;100070.38;;;-2.42;98.64
9423;BME280;65863;49.506;10.400;2023-02-13T03:37:42;100048.16;;;-2.55;98.11
9423;BME280;65863;49.506;10.400;2023-02-13T03:40:51;100075.34;;;-2.33;98.36
9423;BME280;65863;49.506;10.400;2023-02-13T03:46:56;100075.59;;;-2.24;98.42
9423;BME280;65863;49.506;10.400;2023-02-13T03:49:48;100056.56;;;-2.38;98.62
9423;BME280;65863;49.506;10.400;2023-02-13T03:52:54;100065.81;;;-2.25;98.55
9423;BME280;65863;49.506;10.400;2023-02-13T03:55:44;100052.72;;;-2.45;98.28
9423;BME280;65863;49.506;10.400;2023-02-13T03:58:52;100051.75;;;-2.31;98.45
9423;BME280;65863;49.506;10.400;2023-02-13T04:02:07;100062.56;;;-2.20;98.49
9423;BME280;65863;49.506;10.400;2023-02-13T04:05:12;100073.84;;;-2.11;98.29
9423;BME280;65863;49.506;10.400;2023-02-13T04:07:59;100050.50;;;-2.26;98.51
9423;BME280;65863;49.506;10.400;2023-02-13T04:10:51;100054.63;;;-2.14;98.15
9423;BME280;65863;49.506;10.400;2023-02-13T04:13:48;100075.47;;;-2.13;97.99
9423;BME280;65863;49.506;10.400;2023-02-13T04:16:56;100080.22;;;-2.17;98.25
9423;BME280;65863;49.506;10.400;2023-02-13T04:19:41;99991.16;;;-2.82;98.07
9423;BME280;65863;49.506;10.400;2023-02-13T04:22:25;100052.72;;;-2.45;98.32
9423;BME280;65863;49.506;10.400;2023-02-13T04:25:10;100077.84;;;-2.15;98.37
9423;BME280;65863;49.506;10.400;2023-02-13T04:27:55;100075.16;;;-2.19;98.04
9423;BME280;65863;49.506;10.400;2023-02-13T04:30:39;100053.69;;;-2.31;97.85
9423;BME280;65863;49.506;10.400;2023-02-13T04:33:24;100072.03;;;-2.21;97.88
9423;BME280;65863;49.506;10.400;2023-02-13T04:36:07;100047.25;;;-2.48;98.05
9423;BME280;65863;49.506;10.400;2023-02-13T04:38:51;100051.88;;;-2.42;97.87
9423;BME280;65863;49.506;10.400;2023-02-13T04:41:36;100069.13;;;-2.37;97.90
9423;BME280;65863;49.506;10.400;2023-02-13T04:44:19;100057.13;;;-2.51;97.87
9423;BME280;65863;49.506;10.400;2023-02-13T04:47:03;100037.28;;;-2.66;97.97
9423;BME280;65863;49.506;10.400;2023-02-13T04:49:47;100049.53;;;-2.70;97.83
9423;BME280;65863;49.506;10.400;2023-02-13T04:52:31;100074.59;;;-2.65;98.02
9423;BME280;65863;49.506;10.400;2023-02-13T04:55:15;100066.25;;;-2.57;97.93
9423;BME280;65863;49.506;10.400;2023-02-13T04:57:59;100026.97;;;-2.89;97.87
9423;BME280;65863;49.506;10.400;2023-02-13T05:00:43;100047.31;;;-2.83;98.08
9423;BME280;65863;49.506;10.400;2023-02-13T05:03:28;100062.63;;;-2.82;97.98
9423;BME280;65863;49.506;10.400;2023-02-13T05:06:12;100086.09;;;-2.73;97.98
9423;BME280;65863;49.506;10.400;2023-02-13T05:08:55;100078.19;;;-2.68;98.30
9423;BME280;65863;49.506;10.400;2023-02-13T05:11:40;100084.88;;;-2.72;97.96
9423;BME280;65863;49.506;10.400;2023-02-13T05:14:24;100072.91;;;-2.89;97.99
9423;BME280;65863;49.506;10.400;2023-02-13T05:17:08;100075.97;;;-2.80;97.97
9423;BME280;65863;49.506;10.400;2023-02-13T05:19:52;100070.56;;;-2.87;98.31
9423;BME280;65863;49.506;10.400;2023-02-13T05:22:36;100050.59;;;-2.95;98.36
9423;BME280;65863;49.506;10.400;2023-02-13T05:25:40;100089.66;;;-2.77;98.16
9423;BME280;65863;49.506;10.400;2023-02-13T05:28:24;100070.59;;;-2.91;98.06
9423;BME280;65863;49.506;10.400;2023-02-13T05:31:27;100057.34;;;-3.00;98.11
9423;BME280;65863;49.506;10.400;2023-02-13T05:34:11;100068.22;;;-2.89;98.04
9423;BME280;65863;49.506;10.400;2023-02-13T05:36:55;100057.63;;;-2.90;97.94
9423;BME280;65863;49.506;10.400;2023-02-13T05:39:39;100074.50;;;-2.88;97.90
9423;BME280;65863;49.506;10.400;2023-02-13T05:42:23;100058.09;;;-2.99;97.92
9423;BME280;65863;49.506;10.400;2023-02-13T05:45:08;100076.78;;;-2.83;98.38
9423;BME280;65863;49.506;10.400;2023-02-13T05:47:52;99998.72;;;-3.24;98.45
9423;BME280;65863;49.506;10.400;2023-02-13T05:50:37;100113.69;;;-2.50;98.20
9423;BME280;65863;49.506;10.400;2023-02-13T05:53:21;100093.34;;;-2.56;98.49
9423;BME280;65863;49.506;10.400;2023-02-13T05:56:05;100109.97;;;-2.36;98.35
9423;BME280;65863;49.506;10.400;2023-02-13T05:58:56;100089.03;;;-2.57;98.56
9423;BME280;65863;49.506;10.400;2023-02-13T06:01:40;100065.81;;;-2.87;98.06
9423;BME280;65863;49.506;10.400;2023-02-13T06:04:24;100097.28;;;-2.57;98.64
9423;BME280;65863;49.506;10.400;2023-02-13T06:07:08;100077.03;;;-2.70;98.36
9423;BME280;65863;49.506;10.400;2023-02-13T06:09:52;100102.88;;;-2.64;98.22
9423;BME280;65863;49.506;10.400;2023-02-13T06:12:35;100074.06;;;-2.87;98.49
9423;BME280;65863;49.506;10.400;2023-02-13T06:15:21;100101.41;;;-2.72;98.45
9423;BME280;65863;49.506;10.400;2023-02-13T06:18:05;100086.91;;;-2.77;98.24
9423;BME280;65863;49.506;10.400;2023-02-13T06:20:49;100102.44;;;-2.59;98.32
9423;BME280;65863;49.506;10.400;2023-02-13T06:23:34;100119.50;;;-2.44;98.26
9423;BME280;65863;49.506;10.400;2023-02-13T06:26:17;100093.88;;;-2.68;98.38
9423;BME280;65863;49.506;10.400;2023-02-13T06:29:01;100097.13;;;-2.77;98.36
9423;BME280;65863;49.506;10.400;2023-02-13T06:31:45;100103.41;;;-2.77;98.46
9423;BME280;65863;49.506;10.400;2023-02-13T06:34:29;100118.19;;;-2.63;98.51
9423;BME280;65863;49.506;10.400;2023-02-13T06:37:13;100089.41;;;-2.89;98.34
9423;BME280;65863;49.506;10.400;2023-02-13T06:39:57;100110.19;;;-2.85;98.43
9423;BME280;65863;49.506;10.400;2023-02-13T06:42:43;100136.53;;;-2.53;98.53
9423;BME280;65863;49.506;10.400;2023-02-13T06:45:33;100099.88;;;-2.77;98.28
9423;BME280;65863;49.506;10.400;2023-02-13T06:48:17;100134.88;;;-2.47;98.69
9423;BME280;65863;49.506;10.400;2023-02-13T06:51:01;100128.81;;;-2.65;98.30
9423;BME280;65863;49.506;10.400;2023-02-13T06:53:44;100121.34;;;-2.65;98.48
9423;BME280;65863;49.506;10.400;2023-02-13T06:56:29;100110.44;;;-2.72;98.43
9423;BME280;65863;49.506;10.400;2023-02-13T07:02:26;100141.19;;;-2.81;98.62
9423;BME280;65863;49.506;10.400;2023-02-13T07:05:10;100077.16;;;-3.16;98.30
9423;BME280;65863;49.506;10.400;2023-02-13T07:07:54;100151.19;;;-2.63;98.62
9423;BME280;65863;49.506;10.400;2023-02-13T07:10:40;100125.47;;;-2.80;98.53
9423;BME280;65863;49.506;10.400;2023-02-13T07:13:24;100126.56;;;-2.74;98.56
9423;BME280;65863;49.506;10.400;2023-02-13T07:16:08;100117.69;;;-2.89;98.38
9423;BME280;65863;49.506;10.400;2023-02-13T07:18:52;100144.53;;;-2.66;98.65
9423;BME280;65863;49.506;10.400;2023-02-13T07:21:36;100163.69;;;-2.58;98.51
9423;BME280;65863;49.506;10.400;2023-02-13T07:24:21;100135.97;;;-2.71;98.65
9423;BME280;65863;49.506;10.400;2023-02-13T07:27:04;100147.63;;;-2.60;98.35
9423;BME280;65863;49.506;10.400;2023-02-13T07:29:49;100153.31;;;-2.44;98.92
9423;BME280;65863;49.506;10.400;2023-02-13T07:32:33;100147.09;;;-2.48;98.57
9423;BME280;65863;49.506;10.400;2023-02-13T07:35:17;100141.66;;;-2.55;98.91
9423;BME280;65863;49.506;10.400;2023-02-13T07:38:01;100156.50;;;-2.45;98.51
9423;BME280;65863;49.506;10.400;2023-02-13T07:40:45;100151.53;;;-2.61;98.89
9423;BME280;65863;49.506;10.400;2023-02-13T07:43:29;100171.59;;;-2.30;98.95
9423;BME280;65863;49.506;10.400;2023-02-13T07:46:13;100154.94;;;-2.50;98.80
9423;BME280;65863;49.506;10.400;2023-02-13T07:48:57;100145.50;;;-2.49;99.00
9423;BME280;65863;49.506;10.400;2023-02-13T07:51:41;100137.72;;;-2.54;98.91
9423;BME280;65863;49.506;10.400;2023-02-13T07:54:25;100147.09;;;-2.48;98.60
9423;BME280;65863;49.506;10.400;2023-02-13T07:57:09;100132.81;;;-2.39;98.62
9423;BME280;65863;49.506;10.400;2023-02-13T07:59:53;100140.53;;;-2.27;98.81
9423;BME280;65863;49.506;10.400;2023-02-13T08:02:37;100144.22;;;-2.10;98.88
9423;BME280;65863;49.506;10.400;2023-02-13T08:05:21;100144.44;;;-1.97;98.68
9423;BME280;65863;49.506;10.400;2023-02-13T08:08:05;100151.50;;;-1.68;98.95
9423;BME280;65863;49.506;10.400;2023-02-13T08:10:49;100154.81;;;-1.81;98.75
9423;BME280;65863;49.506;10.400;2023-02-13T08:13:52;100137.88;;;-1.79;98.88
9423;BME280;65863;49.506;10.400;2023-02-13T08:16:36;100146.91;;;-1.79;98.66
9423;BME280;65863;49.506;10.400;2023-02-13T08:19:21;100146.00;;;-1.68;99.00
9423;BME280;65863;49.506;10.400;2023-02-13T08:22:05;100165.41;;;-1.52;98.80
9423;BME280;65863;49.506;10.400;2023-02-13T08:24:48;100144.69;;;-1.36;98.93
9423;BME280;65863;49.506;10.400;2023-02-13T08:27:33;100141.03;;;-1.30;98.75
9423;BME280;65863;49.506;10.400;2023-02-13T08:30:17;100150.78;;;-1.25;99.02
9423;BME280;65863;49.506;10.400;2023-02-13T08:33:01;100135.16;;;-1.32;98.68
9423;BME280;65863;49.506;10.400;2023-02-13T08:35:45;100130.88;;;-1.13;98.55
9423;BME280;65863;49.506;10.400;2023-02-13T08:38:29;100134.78;;;-1.10;98.64
9423;BME280;65863;49.506;10.400;2023-02-13T08:41:13;100155.59;;;-0.85;98.81
9423;BME280;65863;49.506;10.400;2023-02-13T08:43:58;100134.34;;;-0.85;98.75
9423;BME280;65863;49.506;10.400;2023-02-13T08:46:42;100165.09;;;-0.66;98.53
9423;BME280;65863;49.506;10.400;2023-02-13T08:49:26;100132.09;;;-0.94;98.64
9423;BME280;65863;49.506;10.400;2023-02-13T08:52:10;100148.31;;;-0.76;98.52
9423;BME280;65863;49.506;10.400;2023-02-13T08:54:54;100154.28;;;-0.57;98.49
9423;BME280;65863;49.506;10.400;2023-02-13T08:57:37;100165.16;;;-0.50;98.29
9423;BME280;65863;49.506;10.400;2023-02-13T09:00:21;100164.88;;;-0.36;98.34
9423;BME280;65863;49.506;10.400;2023-02-13T09:03:05;100105.97;;;-0.85;98.22
9423;BME280;65863;49.506;10.400;2023-02-13T09:05:49;100158.72;;;-0.43;98.24
9423;BME280;65863;49.506;10.400;2023-02-13T09:08:34;100170.94;;;-0.24;98.04
9423;BME280;65863;49.506;10.400;2023-02-13T09:11:19;100169.31;;;-0.22;98.01
9423;BME280;65863;49.506;10.400;2023-02-13T09:14:05;100165.03;;;-0.43;98.00
9423;BME280;65863;49.506;10.400;2023-02-13T09:16:50;100179.28;;;-0.08;98.00
9423;BME280;65863;49.506;10.400;2023-02-13T09:19:33;100175.28;;;0.13;98.23
9423;BME280;65863;49.506;10.400;2023-02-13T09:22:17;100170.91;;;0.32;98.10
9423;BME280;65863;49.506;10.400;2023-02-13T09:25:02;100152.88;;;-0.09;97.89
9423;BME280;65863;49.506;10.400;2023-02-13T09:27:47;100150.69;;;0.19;97.66
9423;BME280;65863;49.506;10.400;2023-02-13T09:30:31;100160.63;;;0.49;97.48
9423;BME280;65863;49.506;10.400;2023-02-13T09:33:15;100172.78;;;0.85;97.67
9423;BME280;65863;49.506;10.400;2023-02-13T09:36:05;100156.94;;;0.73;97.01
9423;BME280;65863;49.506;10.400;2023-02-13T09:38:54;100170.75;;;0.73;96.94
9423;BME280;65863;49.506;10.400;2023-02-13T09:41:41;100160.63;;;0.66;96.68
9423;BME280;65863;49.506;10.400;2023-02-13T09:47:31;100171.72;;;1.12;96.23
9423;BME280;65863;49.506;10.400;2023-02-13T09:50:23;100173.56;;;1.31;95.96
9423;BME280;65863;49.506;10.400;2023-02-13T09:53:17;100146.09;;;1.24;95.61
9423;BME280;65863;49.506;10.400;2023-02-13T09:56:15;100146.56;;;1.06;95.35
9423;BME280;65863;49.506;10.400;2023-02-13T09:59:05;100141.19;;;1.15;94.79
9423;BME280;65863;49.506;10.400;2023-02-13T10:02:00;100137.56;;;1.61;94.66
9423;BME280;65863;49.506;10.400;2023-02-13T10:04:56;100162.00;;;1.92;94.76
9423;BME280;65863;49.506;10.400;2023-02-13T10:07:51;100146.91;;;2.05;93.77
9423;BME280;65863;49.506;10.400;2023-02-13T10:16:36;100177.09;;;2.29;92.69
9423;BME280;65863;49.506;10.400;2023-02-13T10:19:34;100172.88;;;2.12;92.10
9423;BME280;65863;49.506;10.400;2023-02-13T10:22:28;100135.38;;;1.81;91.49
9423;BME280;65863;49.506;10.400;2023-02-13T10:25:23;100153.31;;;1.77;91.32
9423;BME280;65863;49.506;10.400;2023-02-13T10:28:16;100134.75;;;1.90;91.50
9423;BME280;65863;49.506;10.400;2023-02-13T10:31:07;100130.41;;;2.02;91.48
9423;BME280;65863;49.506;10.400;2023-02-13T10:33:57;100124.19;;;1.72;90.96
9423;BME280;65863;49.506;10.400;2023-02-13T10:36:46;100155.34;;;1.89;90.90
9423;BME280;65863;49.506;10.400;2023-02-13T10:39:30;100145.81;;;1.90;91.04
9423;BME280;65863;49.506;10.400;2023-02-13T10:42:53;100160.66;;;2.48;91.34
9423;BME280;65863;49.506;10.400;2023-02-13T10:48:55;100126.13;;;3.09;91.04
9423;BME280;65863;49.506;10.400;2023-02-13T10:51:59;100118.25;;;3.08;90.96
9423;BME280;65863;49.506;10.400;2023-02-13T10:58:11;100150.91;;;3.26;90.36
9423;BME280;65863;49.506;10.400;2023-02-13T11:01:08;100153.84;;;3.44;90.35
9423;BME280;65863;49.506;10.400;2023-02-13T11:04:12;100137.78;;;3.49;89.93
9423;BME280;65863;49.506;10.400;2023-02-13T11:06:59;100120.63;;;3.19;90.15
9423;BME280;65863;49.506;10.400;2023-02-13T11:09:46;100105.28;;;2.92;89.81
9423;BME280;65863;49.506;10.400;2023-02-13T11:12:32;100110.22;;;2.88;89.68
9423;BME280;65863;49.506;10.400;2023-02-13T11:15:25;100103.50;;;3.20;89.98
9423;BME280;65863;49.506;10.400;2023-02-13T11:18:14;100131.41;;;3.61;90.44
9423;BME280;65863;49.506;10.400;2023-02-13T11:21:15;100125.25;;;3.97;90.00
9423;BME280;65863;49.506;10.400;2023-02-13T11:24:01;100094.72;;;3.66;89.73
9423;BME280;65863;49.506;10.400;2023-02-13T11:26:50;100112.88;;;4.30;89.88
9423;BME280;65863;49.506;10.400;2023-02-13T11:29:37;100092.25;;;4.09;89.57
9423;BME280;65863;49.506;10.400;2023-02-13T11:32:34;100077.84;;;4.51;89.59
9423;BME280;65863;49.506;10.400;2023-02-13T11:35:36;100085.44;;;4.60;89.13
9423;BME280;65863;49.506;10.400;2023-02-13T11:38:22;100053.06;;;4.16;88.47
9423;BME280;65863;49.506;10.400;2023-02-13T11:41:12;100099.84;;;4.18;88.26
9423;BME280;65863;49.506;10.400;2023-02-13T11:44:00;100090.88;;;4.04;88.01
9423;BME280;65863;49.506;10.400;2023-02-13T11:46:49;100105.13;;;4.25;88.25
9423;BME280;65863;49.506;10.400;2023-02-13T11:49:37;100107.09;;;4.74;88.37
9423;BME280;65863;49.506;10.400;2023-02-13T11:52:27;100105.56;;;5.29;88.85
9423;BME280;65863;49.506;10.400;2023-02-13T11:56:10;100118.94;;;6.19;88.17
9423;BME280;65863;49.506;10.400;2023-02-13T11:59:01;100086.00;;;6.09;87.05
9423;BME280;65863;49.506;10.400;2023-02-13T12:01:45;100082.69;;;6.19;86.18
9423;BME280;65863;49.506;10.400;2023-02-13T12:04:33;100109.06;;;6.43;85.37
9423;BME280;65863;49.506;10.400;2023-02-13T12:07:29;100106.03;;;6.55;84.45
9423;BME280;65863;49.506;10.400;2023-02-13T12:13:12;100034.19;;;6.41;83.47
9423;BME280;65863;49.506;10.400;2023-02-13T12:16:16;100080.84;;;6.89;82.96
9423;BME280;65863;49.506;10.400;2023-02-13T12:19:07;100083.00;;;7.09;82.96
9423;BME280;65863;49.506;10.400;2023-02-13T12:29:04;100081.34;;;7.92;81.29
9423;BME280;65863;49.506;10.400;2023-02-13T12:32:03;100067.91;;;8.11;80.33
9423;BME280;65863;49.506;10.400;2023-02-13T12:34:54;100068.47;;;8.51;79.65
9423;BME280;65863;49.506;10.400;2023-02-13T12:37:54;100068.63;;;8.62;78.09
9423;BME280;65863;49.506;10.400;2023-02-13T12:44:02;100054.94;;;8.90;75.59
9423;BME280;65863;49.506;10.400;2023-02-13T12:46:55;100049.59;;;8.92;74.41
9423;BME280;65863;49.506;10.400;2023-02-13T12:50:17;100048.78;;;8.86;72.92
9423;BME280;65863;49.506;10.400;2023-02-13T12:59:08;100038.19;;;9.22;69.54
9423;BME280;65863;49.506;10.400;2023-02-13T13:02:22;100034.34;;;9.20;69.19
9423;BME280;65863;49.506;10.400;2023-02-13T13:05:36;100025.09;;;9.40;68.72
9423;BME280;65863;49.506;10.400;2023-02-13T13:12:05;100002.69;;;8.87;66.43
9423;BME280;65863;49.506;10.400;2023-02-13T13:17:57;100017.81;;;8.95;66.76
9423;BME280;65863;49.506;10.400;2023-02-13T13:26:45;99997.34;;;9.42;65.44
9423;BME280;65863;49.506;10.400;2023-02-13T13:29:43;99991.66;;;9.68;64.60
9423;BME280;65863;49.506;10.400;2023-02-13T13:32:29;100009.97;;;9.95;64.54
9423;BME280;65863;49.506;10.400;2023-02-13T13:35:15;99966.34;;;9.94;63.89
9423;BME280;65863;49.506;10.400;2023-02-13T13:38:12;100011.47;;;9.96;63.05
9423;BME280;65863;49.506;10.400;2023-02-13T13:41:03;100000.38;;;10.19;63.00
9423;BME280;65863;49.506;10.400;2023-02-13T13:52:33;100007.00;;;10.16;63.94
9423;BME280;65863;49.506;10.400;2023-02-13T13:58:43;99969.66;;;9.98;64.82
9423;BME280;65863;49.506;10.400;2023-02-13T14:01:29;99996.16;;;10.35;64.41
9423;BME280;65863;49.506;10.400;2023-02-13T14:07:23;100003.34;;;10.53;64.04
9423;BME280;65863;49.506;10.400;2023-02-13T14:13:40;99951.66;;;10.16;63.00
9423;BME280;65863;49.506;10.400;2023-02-13T14:16:43;99977.19;;;10.24;62.12
9423;BME280;65863;49.506;10.400;2023-02-13T14:19:39;99992.38;;;10.49;62.54
9423;BME280;65863;49.506;10.400;2023-02-13T14:22:33;99988.53;;;10.47;62.23
9423;BME280;65863;49.506;10.400;2023-02-13T14:25:24;99987.50;;;10.44;61.93
9423;BME280;65863;49.506;10.400;2023-02-13T14:28:21;99965.03;;;9.90;61.77
9423;BME280;65863;49.506;10.400;2023-02-13T14:31:13;99987.16;;;10.25;61.98
9423;BME280;65863;49.506;10.400;2023-02-13T14:37:04;99973.78;;;9.28;61.57
9423;BME280;65863;49.506;10.400;2023-02-13T14:40:29;99988.72;;;9.83;62.72
9423;BME280;65863;49.506;10.400;2023-02-13T14:43:18;99983.34;;;9.85;62.59
9423;BME280;65863;49.506;10.400;2023-02-13T14:46:15;99980.84;;;9.87;62.35
9423;BME280;65863;49.506;10.400;2023-02-13T14:49:12;99925.78;;;9.52;62.43
9423;BME280;65863;49.506;10.400;2023-02-13T14:52:03;99941.72;;;9.72;61.89
9423;BME280;65863;49.506;10.400;2023-02-13T14:54:51;99952.25;;;9.83;61.73
9423;BME280;65863;49.506;10.400;2023-02-13T14:57:41;99953.69;;;9.67;61.55
9423;BME280;65863;49.506;10.400;2023-02-13T15:00:55;99978.38;;;9.31;62.14
9423;BME280;65863;49.506;10.400;2023-02-13T15:03:48;99982.38;;;9.51;62.73
9423;BME280;65863;49.506;10.400;2023-02-13T15:06:40;99947.41;;;8.82;63.30
9423;BME280;65863;49.506;10.400;2023-02-13T15:09:35;99970.81;;;9.37;63.80
9423;BME280;65863;49.506;10.400;2023-02-13T15:12:32;99969.38;;;9.53;63.53
9423;BME280;65863;49.506;10.400;2023-02-13T15:15:25;99969.09;;;9.89;63.49
9423;BME280;65863;49.506;10.400;2023-02-13T15:18:44;99960.19;;;9.90;63.71
9423;BME280;65863;49.506;10.400;2023-02-13T15:21:30;99952.94;;;9.35;64.57
9423;BME280;65863;49.506;10.400;2023-02-13T15:24:19;99922.19;;;9.14;65.50
9423;BME280;65863;49.506;10.400;2023-02-13T15:27:06;99972.06;;;9.36;66.04
9423;BME280;65863;49.506;10.400;2023-02-13T15:30:13;99945.41;;;8.88;66.47
9423;BME280;65863;49.506;10.400;2023-02-13T15:33:01;99970.06;;;8.84;66.88
9423;BME280;65863;49.506;10.400;2023-02-13T15:35:45;99932.34;;;8.33;67.47
9423;BME280;65863;49.506;10.400;2023-02-13T15:38:31;99968.72;;;8.33;68.22
9423;BME280;65863;49.506;10.400;2023-02-13T15:41:21;99957.59;;;8.18;69.68
9423;BME280;65863;49.506;10.400;2023-02-13T15:44:06;99965.91;;;7.91;69.94
9423;BME280;65863;49.506;10.400;2023-02-13T15:46:52;99966.28;;;7.64;70.58
9423;BME280;65863;49.506;10.400;2023-02-13T15:49:41;99951.13;;;7.35;71.75
9423;BME280;65863;49.506;10.400;2023-02-13T15:52:32;99970.84;;;7.31;72.75
9423;BME280;65863;49.506;10.400;2023-02-13T15:55:22;99952.38;;;7.04;73.13
9423;BME280;65863;49.506;10.400;2023-02-13T15:58:11;99959.50;;;6.90;73.79
9423;BME280;65863;49.506;10.400;2023-02-13T16:01:03;99951.31;;;6.71;74.15
9423;BME280;65863;49.506;10.400;2023-02-13T16:04:15;99971.25;;;6.79;75.53
9423;BME280;65863;49.506;10.400;2023-02-13T16:07:01;99929.22;;;6.29;75.89
9423;BME280;65863;49.506;10.400;2023-02-13T16:09:46;99922.53;;;6.11;76.38
9423;BME280;65863;49.506;10.400;2023-02-13T16:12:30;99946.38;;;6.12;76.92
9423;BME280;65863;49.506;10.400;2023-02-13T16:15:18;99924.72;;;5.83;77.53
9423;BME280;65863;49.506;10.400;2023-02-13T16:18:03;99894.72;;;5.44;77.93
9423;BME280;65863;49.506;10.400;2023-02-13T16:20:53;99876.72;;;5.21;78.54
9423;BME280;65863;49.506;10.400;2023-02-13T16:23:38;99931.25;;;5.46;79.15
9423;BME280;65863;49.506;10.400;2023-02-13T16:26:22;99951.50;;;5.47;79.58
9423;BME280;65863;49.506;10.400;2023-02-13T16:29:09;99967.31;;;5.41;80.33
9423;BME280;65863;49.506;10.400;2023-02-13T16:32:02;99969.38;;;5.31;80.22
9423;BME280;65863;49.506;10.400;2023-02-13T16:34:48;99931.16;;;4.79;80.89
9423;BME280;65863;49.506;10.400;2023-02-13T16:37:33;99957.09;;;4.95;81.42
9423;BME280;65863;49.506;10.400;2023-02-13T16:40:38;99979.06;;;5.02;81.78